Time;durP1;ratioP1;P1;durP2;ratioP2;P2;SDS_P1;SDS_P2;PMS_P1;PMS_P2;Temp;Humidity;BMP_temperature;BMP_pressure;BME280_temperature;BME280_humidity;BME280_pressure;Samples;Min_cycle;Max_cycle;Signal;HPM_P1;HPM_P2
2021/10/23 00:01:36;;;;;;;38.85;20.17;;;12.70;99.90;;;;;;5036928;28;20040;-83
2021/10/23 00:04:02;;;;;;;39.55;20.08;;;12.70;99.90;;;;;;5037520;28;20036;-83
2021/10/23 00:06:27;;;;;;;39.20;20.83;;;12.70;99.90;;;;;;5055409;28;20024;-82
2021/10/23 00:08:53;;;;;;;42.15;20.50;;;12.70;99.90;;;;;;5055303;28;20098;-82
2021/10/23 00:11:19;;;;;;;42.75;20.70;;;12.70;99.90;;;;;;5055299;28;20139;-82
2021/10/23 00:13:45;;;;;;;45.60;22.05;;;12.60;99.90;;;;;;5055058;28;20111;-82
2021/10/23 00:16:11;;;;;;;40.25;20.10;;;12.60;99.90;;;;;;5036070;28;20025;-82
2021/10/23 00:18:37;;;;;;;37.72;20.33;;;12.60;99.90;;;;;;5034186;28;20037;-83
2021/10/23 00:21:03;;;;;;;42.15;21.35;;;12.60;99.90;;;;;;5054123;28;20033;-83
2021/10/23 00:23:29;;;;;;;40.72;20.77;;;12.70;99.90;;;;;;5036131;28;20036;-82
2021/10/23 00:25:55;;;;;;;36.72;19.80;;;12.70;99.90;;;;;;5053812;28;20033;-82
2021/10/23 00:28:21;;;;;;;38.85;20.08;;;12.70;99.90;;;;;;5050952;28;20036;-83
2021/10/23 00:30:47;;;;;;;38.20;20.45;;;12.70;99.90;;;;;;5035929;28;20486;-83
2021/10/23 00:33:13;;;;;;;40.28;20.63;;;12.70;99.90;;;;;;5053814;28;20075;-83
2021/10/23 00:35:39;;;;;;;39.63;20.08;;;12.80;99.90;;;;;;5053930;28;20107;-82
2021/10/23 00:38:04;;;;;;;35.33;19.33;;;12.80;99.90;;;;;;5053594;28;20079;-82
2021/10/23 00:40:30;;;;;;;40.28;20.05;;;12.80;99.90;;;;;;5053694;28;20068;-82
2021/10/23 00:42:58;;;;;;;37.22;20.08;;;12.80;99.90;;;;;;5053859;28;20036;-83
2021/10/23 00:45:25;;;;;;;38.58;20.67;;;12.70;99.90;;;;;;5035808;28;20063;-83
2021/10/23 00:47:51;;;;;;;37.97;19.55;;;12.70;99.90;;;;;;5053333;28;20608;-82
2021/10/23 00:50:17;;;;;;;39.25;19.70;;;12.70;99.90;;;;;;5035732;28;20033;-83
2021/10/23 00:52:43;;;;;;;35.80;19.98;;;12.70;99.90;;;;;;5053647;28;20414;-83
2021/10/23 00:55:09;;;;;;;36.72;19.42;;;12.70;99.90;;;;;;5053432;28;20029;-83
2021/10/23 00:57:35;;;;;;;34.20;18.52;;;12.70;99.90;;;;;;5035390;28;20035;-82
2021/10/23 01:00:01;;;;;;;35.33;19.73;;;12.70;99.90;;;;;;5053368;28;20029;-83
2021/10/23 01:02:27;;;;;;;33.38;18.02;;;12.70;99.90;;;;;;5053072;28;20013;-83
2021/10/23 01:04:53;;;;;;;34.17;18.13;;;12.80;99.90;;;;;;5052961;28;20098;-83
2021/10/23 01:07:19;;;;;;;34.65;17.83;;;12.80;99.90;;;;;;5035315;28;20044;-83
2021/10/23 01:09:45;;;;;;;32.65;18.83;;;12.80;99.90;;;;;;5052899;28;20040;-82
2021/10/23 01:12:12;;;;;;;32.17;17.67;;;12.90;99.90;;;;;;5053196;28;20496;-82
2021/10/23 01:14:40;;;;;;;32.13;17.23;;;12.90;99.90;;;;;;5051819;28;20243;-82
2021/10/23 01:17:06;;;;;;;31.73;17.55;;;12.90;99.90;;;;;;5052861;28;20053;-83
2021/10/23 01:19:32;;;;;;;26.73;15.80;;;13.00;99.90;;;;;;5052954;28;20372;-82
2021/10/23 01:21:58;;;;;;;30.55;17.52;;;13.00;99.90;;;;;;5052953;28;20035;-83
2021/10/23 01:24:24;;;;;;;33.45;17.02;;;13.00;99.90;;;;;;5052844;28;20351;-82
2021/10/23 01:26:51;;;;;;;22.38;13.98;;;13.00;99.90;;;;;;5052667;28;20483;-83
2021/10/23 01:29:18;;;;;;;25.77;15.55;;;13.00;99.90;;;;;;5052747;28;20376;-83
2021/10/23 01:31:45;;;;;;;27.92;15.25;;;13.10;99.90;;;;;;5041502;28;20017;-82
2021/10/23 01:34:19;;;;;;;28.52;15.52;;;13.10;99.90;;;;;;5052691;28;20021;-82
2021/10/23 01:36:48;;;;;;;25.35;14.82;;;13.10;99.90;;;;;;5034776;28;20056;-83
2021/10/23 01:39:14;;;;;;;28.48;14.80;;;13.20;99.90;;;;;;5034262;28;20087;-83
2021/10/23 01:41:40;;;;;;;24.83;15.18;;;13.20;99.90;;;;;;5052651;28;20017;-82
2021/10/23 01:44:08;;;;;;;32.85;15.40;;;13.20;99.90;;;;;;5034739;28;20064;-83
2021/10/23 01:46:35;;;;;;;29.67;14.43;;;13.20;99.90;;;;;;5052393;28;20036;-83
2021/10/23 01:49:01;;;;;;;24.98;14.18;;;13.20;99.90;;;;;;5052364;28;20029;-82
2021/10/23 01:51:28;;;;;;;28.48;14.55;;;13.10;99.90;;;;;;5052485;28;20017;-82
2021/10/23 01:53:54;;;;;;;24.80;14.27;;;13.10;99.90;;;;;;5052247;28;20028;-82
2021/10/23 01:56:20;;;;;;;26.85;14.13;;;13.10;99.90;;;;;;5052255;28;20403;-82
2021/10/23 01:58:46;;;;;;;22.52;13.98;;;13.10;99.90;;;;;;5052203;28;20029;-83
2021/10/23 02:01:11;;;;;;;28.13;14.43;;;13.10;99.90;;;;;;5052101;28;20040;-82
2021/10/23 02:03:37;;;;;;;24.95;14.15;;;13.00;99.90;;;;;;5052139;28;20028;-83
2021/10/23 02:06:07;;;;;;;24.25;13.73;;;13.00;99.90;;;;;;5052129;28;20637;-83
2021/10/23 02:08:32;;;;;;;31.90;14.05;;;13.00;99.90;;;;;;5039783;28;20412;-83
2021/10/23 02:10:58;;;;;;;32.95;14.63;;;13.00;99.90;;;;;;5051881;28;20114;-83
2021/10/23 02:13:24;;;;;;;25.75;14.77;;;12.90;99.90;;;;;;5052143;28;20046;-83
2021/10/23 02:15:50;;;;;;;27.48;14.20;;;12.90;99.90;;;;;;5051168;28;20036;-83
2021/10/23 02:18:15;;;;;;;26.35;14.82;;;12.90;99.90;;;;;;5050371;28;20410;-83
2021/10/23 02:20:41;;;;;;;27.65;15.43;;;13.00;99.90;;;;;;5051948;28;20542;-83
2021/10/23 02:23:07;;;;;;;29.33;15.77;;;13.00;99.90;;;;;;5050355;28;20037;-83
2021/10/23 02:25:32;;;;;;;31.17;15.10;;;13.00;99.90;;;;;;5051746;28;20029;-83
2021/10/23 02:27:58;;;;;;;30.05;15.15;;;12.90;99.90;;;;;;5051922;28;20394;-83
2021/10/23 02:30:24;;;;;;;29.73;15.35;;;12.90;99.90;;;;;;5048516;28;20100;-83
2021/10/23 02:32:51;;;;;;;28.80;15.43;;;12.90;99.90;;;;;;5051790;28;20025;-82
2021/10/23 02:35:17;;;;;;;32.08;15.48;;;12.80;99.90;;;;;;5051754;28;20021;-83
2021/10/23 02:37:43;;;;;;;24.38;14.52;;;12.80;99.90;;;;;;5033542;28;20032;-83
2021/10/23 02:40:09;;;;;;;27.85;15.13;;;12.80;99.90;;;;;;5051544;28;20044;-83
2021/10/23 02:42:35;;;;;;;31.95;16.10;;;12.80;99.90;;;;;;5051617;28;20032;-83
2021/10/23 02:45:01;;;;;;;30.30;15.35;;;12.70;99.90;;;;;;5051470;28;20017;-83
2021/10/23 02:47:26;;;;;;;24.40;14.23;;;12.70;99.90;;;;;;5051446;28;20063;-82
2021/10/23 02:49:52;;;;;;;25.88;13.25;;;12.70;99.90;;;;;;5051585;28;20028;-83
2021/10/23 02:52:18;;;;;;;29.85;15.00;;;12.70;99.90;;;;;;5051327;28;20028;-82
2021/10/23 02:54:43;;;;;;;23.95;14.48;;;12.70;99.90;;;;;;5033532;28;20021;-82
2021/10/23 02:57:10;;;;;;;26.42;13.82;;;12.70;99.90;;;;;;5051523;28;20501;-82
2021/10/23 02:59:36;;;;;;;24.38;13.70;;;12.60;99.90;;;;;;5051234;28;20300;-83
2021/10/23 03:02:02;;;;;;;28.70;13.48;;;12.60;99.90;;;;;;5051384;28;20032;-83
2021/10/23 03:04:28;;;;;;;29.77;14.50;;;12.60;99.90;;;;;;5051451;28;20048;-83
2021/10/23 03:06:53;;;;;;;28.35;15.23;;;12.60;99.90;;;;;;5051008;28;20029;-82
2021/10/23 03:09:19;;;;;;;25.08;14.43;;;12.60;99.90;;;;;;5051180;28;20025;-83
2021/10/23 03:11:45;;;;;;;30.45;13.50;;;12.60;99.90;;;;;;5051479;28;20540;-83
2021/10/23 03:14:10;;;;;;;27.08;13.82;;;12.60;99.90;;;;;;5049886;28;20021;-82
2021/10/23 03:16:36;;;;;;;23.77;12.38;;;12.50;99.90;;;;;;5049800;28;20067;-77
2021/10/23 03:19:02;;;;;;;26.75;13.93;;;12.50;99.90;;;;;;5049727;28;20025;-78
2021/10/23 03:21:28;;;;;;;22.00;12.68;;;12.50;99.90;;;;;;5051150;28;20029;-78
2021/10/23 03:23:54;;;;;;;24.63;13.88;;;12.50;99.90;;;;;;5051167;28;20045;-77
2021/10/23 03:26:19;;;;;;;20.45;12.15;;;12.50;99.90;;;;;;5052066;28;20368;-78
2021/10/23 03:28:45;;;;;;;25.50;12.98;;;12.50;99.90;;;;;;5054897;28;20086;-78
2021/10/23 03:31:11;;;;;;;22.70;12.32;;;12.50;99.90;;;;;;5055218;28;20044;-78
2021/10/23 03:33:37;;;;;;;22.27;12.57;;;12.50;99.90;;;;;;5054983;28;20468;-78
2021/10/23 03:36:05;;;;;;;21.33;11.73;;;12.50;99.90;;;;;;5053624;28;20021;-77
2021/10/23 03:38:31;;;;;;;21.17;11.77;;;12.50;99.90;;;;;;5044097;28;20040;-78
2021/10/23 03:40:57;;;;;;;23.98;12.27;;;12.40;99.90;;;;;;5037136;28;20025;-78
2021/10/23 03:43:23;;;;;;;18.40;11.18;;;12.40;99.90;;;;;;5054843;28;20080;-77
2021/10/23 03:45:49;;;;;;;22.90;12.00;;;12.40;99.90;;;;;;5054627;28;20056;-77
2021/10/23 03:48:15;;;;;;;21.17;11.65;;;12.40;99.90;;;;;;5054760;28;20025;-78
2021/10/23 03:50:40;;;;;;;22.58;11.65;;;12.40;99.90;;;;;;5036507;28;20032;-77
2021/10/23 03:53:06;;;;;;;19.02;11.45;;;12.40;99.90;;;;;;5054692;28;20029;-78
2021/10/23 03:55:32;;;;;;;21.20;11.98;;;12.50;99.90;;;;;;5036628;28;20025;-77
2021/10/23 03:57:58;;;;;;;22.63;11.32;;;12.40;99.90;;;;;;5054362;28;20403;-78
2021/10/23 04:00:24;;;;;;;20.05;11.52;;;12.40;99.90;;;;;;5036637;28;20025;-77
2021/10/23 04:02:49;;;;;;;19.45;10.93;;;12.40;99.90;;;;;;5036424;28;20368;-77
2021/10/23 04:05:15;;;;;;;20.77;11.25;;;12.40;99.90;;;;;;5054271;28;20059;-77
2021/10/23 04:07:41;;;;;;;24.20;12.15;;;12.40;99.90;;;;;;5054368;28;20390;-77
2021/10/23 04:10:07;;;;;;;19.90;11.98;;;12.30;99.90;;;;;;5054359;28;20017;-78
2021/10/23 04:12:33;;;;;;;19.75;11.00;;;12.30;99.90;;;;;;5054217;28;20017;-78
2021/10/23 04:15:00;;;;;;;19.65;11.10;;;12.30;99.90;;;;;;5053049;28;20116;-77
2021/10/23 04:17:27;;;;;;;22.00;12.23;;;12.30;99.90;;;;;;5053863;28;20042;-77
2021/10/23 04:19:53;;;;;;;20.73;11.68;;;12.30;99.90;;;;;;5054010;28;20021;-78
2021/10/23 04:22:19;;;;;;;20.27;11.63;;;12.30;99.90;;;;;;5053261;28;20104;-78
2021/10/23 04:24:45;;;;;;;22.83;11.57;;;12.30;99.90;;;;;;5051700;28;20017;-78
2021/10/23 04:27:10;;;;;;;23.50;11.30;;;12.30;99.90;;;;;;5053911;28;20106;-77
2021/10/23 04:29:36;;;;;;;17.15;10.73;;;12.30;99.90;;;;;;5054121;28;20425;-77
2021/10/23 04:32:02;;;;;;;23.63;12.52;;;12.30;99.90;;;;;;5035970;28;20052;-77
2021/10/23 04:34:28;;;;;;;20.50;11.82;;;12.30;99.90;;;;;;5053656;28;20089;-77
2021/10/23 04:36:54;;;;;;;19.90;11.50;;;12.30;99.90;;;;;;5036077;28;20033;-77
2021/10/23 04:39:20;;;;;;;18.65;11.10;;;12.30;99.90;;;;;;5052548;28;20028;-77
2021/10/23 04:41:46;;;;;;;17.05;10.63;;;12.30;99.90;;;;;;5035769;28;20025;-77
2021/10/23 04:44:12;;;;;;;22.58;11.50;;;12.30;99.90;;;;;;5053756;28;20052;-77
2021/10/23 04:46:38;;;;;;;25.35;12.10;;;12.20;99.90;;;;;;5035653;28;20138;-77
2021/10/23 04:49:03;;;;;;;19.70;11.95;;;12.20;99.90;;;;;;5035482;28;20064;-78
2021/10/23 04:51:29;;;;;;;20.23;11.23;;;12.20;99.90;;;;;;5035813;28;20017;-77
2021/10/23 04:53:55;;;;;;;19.65;10.90;;;12.20;99.90;;;;;;5035597;28;20017;-77
2021/10/23 04:56:20;;;;;;;20.77;11.70;;;12.20;99.90;;;;;;5053647;28;20368;-77
2021/10/23 04:58:47;;;;;;;22.52;12.88;;;12.20;99.90;;;;;;5035232;28;20033;-77
2021/10/23 05:01:13;;;;;;;22.60;12.52;;;12.20;99.90;;;;;;5035415;28;20390;-78
2021/10/23 05:03:38;;;;;;;20.95;11.13;;;12.10;99.90;;;;;;5053281;28;20025;-77
2021/10/23 05:06:04;;;;;;;23.15;10.90;;;12.10;99.90;;;;;;5035646;28;20475;-77
2021/10/23 05:08:30;;;;;;;17.38;11.23;;;12.00;99.90;;;;;;5040569;28;20021;-77
2021/10/23 05:10:56;;;;;;;17.77;10.82;;;12.00;99.90;;;;;;5052103;28;20025;-78
2021/10/23 05:13:21;;;;;;;19.58;10.75;;;12.00;99.90;;;;;;5051938;28;20021;-77
2021/10/23 05:15:47;;;;;;;19.25;11.75;;;12.00;99.90;;;;;;5051754;28;20033;-77
2021/10/23 05:18:13;;;;;;;18.75;10.68;;;12.00;99.90;;;;;;5052803;28;20048;-78
2021/10/23 05:20:39;;;;;;;22.17;11.65;;;12.00;99.90;;;;;;5035021;28;20061;-77
2021/10/23 05:23:05;;;;;;;18.13;11.23;;;12.00;99.90;;;;;;5052997;28;20017;-77
2021/10/23 05:25:30;;;;;;;18.77;10.73;;;12.00;99.90;;;;;;5052929;28;20032;-78
2021/10/23 05:27:56;;;;;;;20.40;12.13;;;12.00;99.90;;;;;;5034828;28;20025;-77
2021/10/23 05:30:22;;;;;;;20.70;11.52;;;12.00;99.90;;;;;;5052558;28;20070;-78
2021/10/23 05:32:48;;;;;;;20.75;10.75;;;11.90;99.90;;;;;;5052754;28;20021;-77
2021/10/23 05:35:13;;;;;;;18.05;10.57;;;12.00;99.90;;;;;;5052651;28;20532;-78
2021/10/23 05:37:39;;;;;;;23.67;10.75;;;12.00;99.90;;;;;;5052406;28;20025;-78
2021/10/23 05:40:05;;;;;;;15.77;9.68;;;12.00;99.90;;;;;;5048859;28;20024;-77
2021/10/23 05:42:31;;;;;;;18.92;10.20;;;12.10;99.90;;;;;;5032461;28;20021;-77
2021/10/23 05:44:57;;;;;;;13.60;9.65;;;12.10;99.90;;;;;;5031356;28;20435;-77
2021/10/23 05:47:22;;;;;;;22.10;9.93;;;12.10;99.90;;;;;;5032551;28;20100;-77
2021/10/23 05:49:48;;;;;;;16.77;10.20;;;12.10;99.90;;;;;;5032522;28;20108;-77
2021/10/23 05:52:14;;;;;;;20.35;10.13;;;12.10;99.90;;;;;;5032527;28;20052;-77
2021/10/23 05:54:40;;;;;;;23.10;10.05;;;12.10;99.90;;;;;;5032373;28;20501;-78
2021/10/23 05:57:07;;;;;;;21.95;9.93;;;12.20;99.90;;;;;;5031022;28;20030;-77
2021/10/23 05:59:34;;;;;;;15.63;9.57;;;12.20;99.90;;;;;;5031024;28;20026;-77
2021/10/23 06:02:11;;;;;;;19.80;8.98;;;12.20;99.90;;;;;;5032327;28;20022;-77
2021/10/23 06:04:37;;;;;;;18.27;9.65;;;12.20;99.90;;;;;;5032356;28;20112;-77
2021/10/23 06:07:05;;;;;;;19.73;9.45;;;12.20;99.90;;;;;;5032195;28;20445;-77
2021/10/23 06:09:32;;;;;;;21.35;9.25;;;12.20;99.90;;;;;;5034185;28;20475;-77
2021/10/23 06:12:01;;;;;;;18.85;9.90;;;12.30;99.90;;;;;;5033959;28;20284;-78
2021/10/23 06:14:28;;;;;;;17.52;8.95;;;12.30;99.90;;;;;;5051942;28;20036;-78
2021/10/23 06:16:53;;;;;;;14.88;8.80;;;12.30;99.90;;;;;;5036450;28;20033;-78
2021/10/23 06:19:19;;;;;;;15.70;9.70;;;12.30;99.90;;;;;;5051853;28;20036;-77
2021/10/23 06:21:45;;;;;;;13.43;8.90;;;12.40;99.90;;;;;;5051761;28;20021;-77
2021/10/23 06:24:10;;;;;;;16.30;9.52;;;12.40;99.90;;;;;;5050620;28;20171;-78
2021/10/23 06:26:36;;;;;;;19.60;8.98;;;12.40;99.90;;;;;;5051633;28;20372;-78
2021/10/23 06:29:02;;;;;;;15.52;8.57;;;12.40;99.90;;;;;;5051470;28;20017;-77
2021/10/23 06:31:28;;;;;;;16.02;9.20;;;12.50;99.90;;;;;;5048156;28;20036;-77
2021/10/23 06:33:53;;;;;;;16.50;7.80;;;12.50;99.90;;;;;;5052258;28;20024;-77
2021/10/23 06:36:19;;;;;;;11.15;7.50;;;12.50;99.90;;;;;;5033771;28;20036;-77
2021/10/23 06:38:45;;;;;;;10.25;7.22;;;12.50;99.90;;;;;;5051541;28;20383;-77
2021/10/23 06:41:11;;;;;;;9.77;7.57;;;12.50;99.90;;;;;;5033583;28;20509;-77
2021/10/23 06:43:36;;;;;;;14.57;7.68;;;12.50;99.90;;;;;;5033747;28;20028;-77
2021/10/23 06:46:02;;;;;;;11.35;7.75;;;12.50;99.90;;;;;;5051328;28;20025;-77
2021/10/23 06:48:28;;;;;;;12.43;7.20;;;12.50;99.90;;;;;;5033675;28;20024;-77
2021/10/23 06:50:54;;;;;;;18.40;8.65;;;12.50;99.90;;;;;;5051474;28;20025;-77
2021/10/23 06:53:19;;;;;;;13.18;8.02;;;12.50;99.90;;;;;;5051298;28;20021;-78
2021/10/23 06:55:45;;;;;;;17.52;9.95;;;12.40;99.90;;;;;;5033997;28;20025;-77
2021/10/23 06:58:11;;;;;;;32.28;14.23;;;12.40;99.90;;;;;;5034796;28;20029;-78
2021/10/23 07:00:36;;;;;;;28.58;14.40;;;12.40;99.90;;;;;;5034500;28;20024;-77
2021/10/23 07:03:02;;;;;;;32.53;15.25;;;12.40;99.90;;;;;;5052539;28;20033;-77
2021/10/23 07:05:30;;;;;;;28.55;14.48;;;12.40;99.90;;;;;;5052710;28;20436;-77
2021/10/23 07:07:56;;;;;;;23.75;14.23;;;12.40;99.90;;;;;;5051616;28;20025;-82
2021/10/23 07:10:21;;;;;;;24.77;13.05;;;12.40;99.90;;;;;;5050150;28;20441;-82
2021/10/23 07:12:47;;;;;;;28.00;14.70;;;12.40;99.90;;;;;;5050534;28;20013;-83
2021/10/23 07:15:13;;;;;;;25.92;13.57;;;12.30;99.90;;;;;;5051377;28;20021;-83
2021/10/23 07:17:39;;;;;;;21.98;13.10;;;12.40;99.90;;;;;;5049912;28;20529;-83
2021/10/23 07:20:06;;;;;;;15.45;10.07;;;12.40;99.90;;;;;;5051868;28;20029;-83
2021/10/23 07:22:31;;;;;;;14.05;9.15;;;12.40;99.90;;;;;;5050883;28;20433;-83
2021/10/23 07:24:57;;;;;;;11.70;7.82;;;12.50;99.90;;;;;;5049971;28;20025;-83
2021/10/23 07:27:23;;;;;;;10.07;7.60;;;12.50;99.90;;;;;;5050807;28;20287;-83
2021/10/23 07:29:49;;;;;;;8.48;6.10;;;12.60;99.90;;;;;;5051204;28;20025;-82
2021/10/23 07:32:15;;;;;;;9.45;6.40;;;12.60;99.90;;;;;;5051148;28;20495;-83
2021/10/23 07:34:40;;;;;;;9.75;6.03;;;12.70;99.90;;;;;;5051057;28;20053;-82
2021/10/23 07:37:06;;;;;;;10.40;6.25;;;12.70;99.90;;;;;;5051097;28;20116;-82
2021/10/23 07:39:33;;;;;;;9.13;6.60;;;12.80;99.90;;;;;;5051062;28;20025;-82
2021/10/23 07:41:59;;;;;;;11.77;6.80;;;12.80;99.90;;;;;;5050762;28;20028;-82
2021/10/23 07:44:25;;;;;;;13.25;8.68;;;12.80;99.90;;;;;;5051178;28;20029;-82
2021/10/23 07:46:51;;;;;;;17.92;10.18;;;12.80;99.90;;;;;;5053287;28;20082;-83
2021/10/23 07:49:16;;;;;;;19.98;11.10;;;12.90;99.90;;;;;;5050955;28;20029;-83
2021/10/23 07:51:42;;;;;;;18.50;10.75;;;12.90;99.90;;;;;;5050998;28;20074;-82
2021/10/23 07:54:08;;;;;;;19.30;11.13;;;13.00;99.90;;;;;;5032965;28;20494;-82
2021/10/23 07:56:39;;;;;;;21.73;11.88;;;13.00;99.90;;;;;;5050832;28;20021;-83
2021/10/23 07:59:04;;;;;;;21.67;12.55;;;13.00;99.90;;;;;;5032874;28;20017;-83
2021/10/23 08:01:30;;;;;;;24.17;12.88;;;13.10;99.90;;;;;;5050911;28;20074;-82
2021/10/23 08:03:56;;;;;;;24.08;13.48;;;13.20;99.90;;;;;;5050774;28;20056;-82
2021/10/23 08:06:22;;;;;;;30.42;14.38;;;13.20;99.90;;;;;;5050642;28;20021;-83
2021/10/23 08:08:48;;;;;;;28.85;14.25;;;13.20;99.90;;;;;;5050711;28;20028;-83
2021/10/23 08:11:14;;;;;;;32.17;14.95;;;13.30;99.90;;;;;;5050720;28;20025;-83
2021/10/23 08:13:40;;;;;;;31.58;15.63;;;13.30;99.90;;;;;;5050847;28;20072;-82
2021/10/23 08:16:06;;;;;;;29.25;15.80;;;13.30;99.90;;;;;;5054361;28;20078;-83
2021/10/23 08:18:33;;;;;;;36.95;18.38;;;13.40;99.90;;;;;;5054035;28;20128;-83
2021/10/23 08:21:00;;;;;;;36.67;18.95;;;13.40;99.90;;;;;;5054189;28;20468;-83
2021/10/23 08:23:27;;;;;;;38.42;19.55;;;13.50;99.90;;;;;;5054249;28;20029;-82
2021/10/23 08:25:53;;;;;;;47.40;20.98;;;13.50;99.90;;;;;;5053973;28;20376;-83
2021/10/23 08:28:23;;;;;;;47.35;21.63;;;13.60;99.90;;;;;;5054445;28;20029;-83
2021/10/23 08:30:49;;;;;;;55.03;22.92;;;13.70;99.90;;;;;;5055404;28;20028;-83
2021/10/23 08:33:15;;;;;;;54.08;23.58;;;13.70;99.90;;;;;;5054079;28;20028;-82
2021/10/23 08:35:41;;;;;;;54.78;24.85;;;13.80;99.90;;;;;;5054039;28;20029;-83
2021/10/23 08:38:07;;;;;;;55.55;23.95;;;13.80;99.90;;;;;;5055014;28;20103;-83
2021/10/23 08:40:33;;;;;;;47.85;23.88;;;13.90;99.90;;;;;;5055100;28;20079;-83
2021/10/23 08:42:59;;;;;;;50.75;24.73;;;14.00;99.90;;;;;;5055203;28;20494;-83
2021/10/23 08:45:25;;;;;;;50.80;23.60;;;14.00;99.90;;;;;;5054837;28;20032;-82
2021/10/23 08:47:51;;;;;;;48.40;23.35;;;14.00;99.90;;;;;;5054852;28;20021;-82
2021/10/23 08:50:22;;;;;;;53.88;23.90;;;14.00;99.90;;;;;;5055038;28;20017;-83
2021/10/23 08:52:56;;;;;;;47.30;21.80;;;14.10;99.90;;;;;;5054906;28;20029;-82
2021/10/23 08:55:22;;;;;;;48.38;22.92;;;14.20;99.90;;;;;;5054957;28;20066;-82
2021/10/23 08:57:48;;;;;;;48.13;23.73;;;14.20;99.90;;;;;;5054824;28;20009;-83
2021/10/23 09:00:15;;;;;;;44.22;21.92;;;14.30;99.90;;;;;;5054785;28;20383;-83
2021/10/23 09:02:48;;;;;;;42.08;20.65;;;14.40;99.90;;;;;;5054758;28;20021;-83
2021/10/23 09:05:14;;;;;;;34.47;17.83;;;14.40;99.90;;;;;;5053379;28;20391;-82
2021/10/23 09:07:46;;;;;;;34.67;16.20;;;14.50;99.90;;;;;;5053334;28;20666;-82
2021/10/23 09:10:13;;;;;;;35.58;19.73;;;14.50;99.90;;;;;;5053318;28;20405;-83
2021/10/23 09:12:39;;;;;;;39.55;19.65;;;14.60;99.90;;;;;;5053306;28;20025;-83
2021/10/23 09:15:17;;;;;;;32.72;17.60;;;14.60;99.90;;;;;;5054590;28;20035;-82
2021/10/23 09:17:53;;;;;;;40.88;18.75;;;14.60;99.90;;;;;;5054239;28;20044;-84
2021/10/23 09:20:20;;;;;;;40.67;19.67;;;14.70;99.90;;;;;;5054499;28;20029;-83
2021/10/23 09:22:49;;;;;;;40.65;20.50;;;14.70;99.90;;;;;;5054505;28;20166;-83
2021/10/23 09:25:22;;;;;;;42.50;20.48;;;14.80;99.90;;;;;;5053874;28;20021;-82
2021/10/23 09:27:54;;;;;;;46.72;22.67;;;14.80;99.90;;;;;;5054378;28;20035;-83
2021/10/23 09:30:24;;;;;;;48.03;22.75;;;14.90;99.90;;;;;;5054044;28;20025;-83
2021/10/23 09:32:56;;;;;;;59.22;25.15;;;15.00;99.90;;;;;;5052808;28;20554;-83
2021/10/23 09:35:23;;;;;;;57.05;26.45;;;15.10;99.90;;;;;;5053992;28;20028;-82
2021/10/23 09:37:56;;;;;;;51.53;25.02;;;15.10;99.90;;;;;;5053884;28;20104;-83
2021/10/23 09:40:24;;;;;;;50.20;26.10;;;15.10;99.90;;;;;;5052631;28;20025;-83
2021/10/23 09:43:11;;;;;;;53.38;25.70;;;15.20;99.90;;;;;;5053720;28;20482;-83
2021/10/23 09:46:02;;;;;;;51.63;24.73;;;15.20;99.90;;;;;;5053692;28;20017;-83
2021/10/23 09:48:51;;;;;;;56.55;26.35;;;15.30;99.90;;;;;;5053680;28;20028;-83
2021/10/23 09:51:29;;;;;;;55.75;27.13;;;15.30;99.90;;;;;;5053747;28;20036;-84
2021/10/23 09:53:59;;;;;;;56.83;27.70;;;15.40;99.90;;;;;;5053915;28;20020;-83
2021/10/23 09:56:35;;;;;;;49.33;26.42;;;15.40;99.90;;;;;;5052431;28;20025;-84
2021/10/23 09:59:08;;;;;;;51.60;26.33;;;15.40;99.90;;;;;;5053062;28;20032;-84
2021/10/23 10:01:36;;;;;;;53.72;25.45;;;15.50;99.90;;;;;;5053033;28;20028;-84
2021/10/23 10:04:04;;;;;;;53.10;26.42;;;15.50;99.90;;;;;;5051558;28;20508;-84
2021/10/23 10:06:34;;;;;;;53.13;25.55;;;15.60;99.90;;;;;;5044176;28;20478;-83
2021/10/23 10:09:02;;;;;;;49.20;25.23;;;15.60;99.90;;;;;;5052884;28;20017;-84
2021/10/23 10:11:28;;;;;;;47.38;23.10;;;15.60;99.90;;;;;;5052369;28;20529;-87
2021/10/23 10:13:55;;;;;;;47.63;22.70;;;15.60;99.90;;;;;;5034179;28;20017;-84
2021/10/23 10:16:21;;;;;;;36.17;19.50;;;15.70;99.90;;;;;;5033862;28;20072;-82
2021/10/23 10:18:47;;;;;;;41.97;20.08;;;15.70;99.90;;;;;;5052260;28;20052;-86
2021/10/23 10:21:16;;;;;;;34.92;18.27;;;15.70;99.90;;;;;;5053127;28;20025;-85
2021/10/23 10:23:44;;;;;;;47.05;18.65;;;15.70;99.90;;;;;;5053170;28;20032;-85
2021/10/23 10:26:23;;;;;;;40.00;17.90;;;15.70;99.90;;;;;;5053142;28;20064;-86
2021/10/23 10:29:27;;;;;;;39.33;19.88;;;15.70;99.90;;;;;;5052963;28;20028;-86
2021/10/23 10:32:23;;;;;;;53.58;25.35;;;15.70;99.90;;;;;;5053226;28;20497;-86
2021/10/23 10:43:06;;;;;;;50.13;24.58;;;15.80;99.90;;;;;;5033172;28;20391;-85
2021/10/23 10:48:18;;;;;;;49.97;24.90;;;15.90;99.90;;;;;;5032799;28;20116;-82
2021/10/23 10:50:49;;;;;;;52.13;24.80;;;15.80;99.90;;;;;;5015173;28;20029;-82
2021/10/23 10:53:26;;;;;;;53.88;25.70;;;15.90;99.90;;;;;;5032977;28;20022;-83
2021/10/23 10:55:54;;;;;;;49.22;24.55;;;15.90;99.90;;;;;;5033012;28;20036;-83
2021/10/23 10:58:38;;;;;;;57.58;27.40;;;15.80;99.90;;;;;;5032943;28;20526;-83
2021/10/23 11:01:11;;;;;;;50.45;25.90;;;15.90;99.90;;;;;;5015118;28;20040;-83
2021/10/23 11:03:45;;;;;;;;;;;15.90;99.90;;;;;;5026519;28;20037;-83
2021/10/23 11:06:33;;;;;;;56.80;26.40;;;15.90;99.90;;;;;;5034623;28;19966;-83
2021/10/23 11:09:11;;;;;;;55.45;25.77;;;16.00;99.90;;;;;;5052329;28;20625;-81
2021/10/23 11:11:51;;;;;;;56.60;27.95;;;16.00;99.90;;;;;;5052509;28;20021;-84
2021/10/23 11:14:32;;;;;;;50.38;26.92;;;16.10;99.90;;;;;;5052195;28;20494;-83
2021/10/23 11:17:13;;;;;;;54.85;25.83;;;16.00;99.90;;;;;;5052057;28;20049;-78
2021/10/23 11:19:48;;;;;;;55.37;27.20;;;16.10;99.90;;;;;;5051098;28;20032;-76
2021/10/23 11:22:30;;;;;;;48.88;25.30;;;16.10;99.90;;;;;;5050648;28;20029;-75
2021/10/23 11:25:10;;;;;;;42.55;24.10;;;16.20;99.90;;;;;;5030851;28;20029;-75
2021/10/23 11:27:45;;;;;;;54.50;25.38;;;16.20;99.90;;;;;;5031271;28;20116;-76
2021/10/23 11:30:21;;;;;;;47.58;25.13;;;16.30;99.90;;;;;;5049377;28;20028;-76
2021/10/23 11:33:04;;;;;;;51.22;24.92;;;16.40;99.90;;;;;;5049317;28;20021;-75
2021/10/23 11:35:44;;;;;;;47.00;23.77;;;16.40;99.90;;;;;;5032107;28;20375;-76
2021/10/23 11:38:26;;;;;;;53.95;23.98;;;16.50;99.90;;;;;;5050763;28;20078;-76
2021/10/23 11:40:58;;;;;;;41.42;23.17;;;16.50;99.90;;;;;;5051230;28;20029;-76
2021/10/23 11:43:24;;;;;;;45.90;21.33;;;16.50;99.90;;;;;;5050487;28;20407;-76
2021/10/23 11:45:50;;;;;;;40.22;21.17;;;16.60;99.90;;;;;;5049817;28;20025;-76
2021/10/23 11:48:19;;;;;;;36.20;20.75;;;16.60;99.90;;;;;;5053339;28;20025;-75
2021/10/23 11:50:50;;;;;;;38.22;19.58;;;16.60;99.90;;;;;;5055783;28;20075;-76
2021/10/23 11:53:21;;;;;;;39.67;21.50;;;16.70;99.90;;;;;;5053668;28;20033;-75
2021/10/23 11:55:50;;;;;;;41.35;22.48;;;16.70;99.90;;;;;;5054844;28;20079;-75
2021/10/23 11:58:18;;;;;;;50.78;23.50;;;16.80;99.90;;;;;;5036416;28;20055;-76
2021/10/23 12:00:47;;;;;;;48.30;23.92;;;16.90;99.90;;;;;;5054602;28;20025;-76
2021/10/23 12:03:39;;;;;;;43.92;22.38;;;16.90;99.90;;;;;;5036486;28;20025;-76
2021/10/23 12:06:18;;;;;;;47.50;23.20;;;17.00;99.90;;;;;;5043554;28;20120;-75
2021/10/23 12:08:44;;;;;;;48.45;22.73;;;17.00;99.90;;;;;;5054278;28;20386;-76
2021/10/23 12:11:19;;;;;;;44.58;23.48;;;17.00;99.90;;;;;;5054266;28;20107;-76
2021/10/23 12:13:52;;;;;;;51.33;23.20;;;17.10;99.90;;;;;;5054238;28;20471;-75
2021/10/23 12:16:38;;;;;;;46.70;23.27;;;17.20;99.90;;;;;;5054285;28;20036;-81
2021/10/23 12:19:19;;;;;;;47.00;23.23;;;17.20;99.90;;;;;;5039465;28;20048;-81
2021/10/23 12:22:18;;;;;;;45.45;23.48;;;17.20;99.90;;;;;;5052733;28;20298;-82
2021/10/23 12:24:50;;;;;;;47.50;22.85;;;17.20;99.90;;;;;;5054246;28;20036;-81
2021/10/23 12:27:21;;;;;;;45.38;23.38;;;17.30;99.90;;;;;;5053966;28;20021;-82
2021/10/23 12:30:02;;;;;;;45.50;23.08;;;17.30;99.90;;;;;;5054133;28;20049;-81
2021/10/23 12:32:47;;;;;;;45.60;23.52;;;17.30;99.90;;;;;;5054084;28;20021;-81
2021/10/23 12:35:27;;;;;;;38.60;21.52;;;17.20;99.90;;;;;;5051604;28;20025;-82
2021/10/23 12:37:57;;;;;;;40.88;19.95;;;17.30;99.90;;;;;;5053782;28;20025;-82
2021/10/23 12:40:39;;;;;;;39.28;20.80;;;17.20;99.90;;;;;;5036031;28;20029;-83
2021/10/23 12:43:10;;;;;;;39.83;20.83;;;17.20;99.90;;;;;;5035887;28;20021;-83
2021/10/23 12:45:37;;;;;;;36.28;20.33;;;17.30;99.90;;;;;;5054015;28;20454;-82